sensor_id;sensor_type;location;lat;lon;timestamp;pressure;altitude;pressure_sealevel;temperature;humidity
45467;BME280;31212;49.734;8.490;2022-11-20T00:01:13;100174.06;;;2.95;94.46
45467;BME280;31212;49.734;8.490;2022-11-20T00:03:40;100172.94;;;2.86;94.32
45467;BME280;31212;49.734;8.490;2022-11-20T00:06:08;100171.47;;;2.95;94.32
45467;BME280;31212;49.734;8.490;2022-11-20T00:08:37;100158.59;;;2.92;94.53
45467;BME280;31212;49.734;8.490;2022-11-20T00:11:04;100165.38;;;2.91;93.96
45467;BME280;31212;49.734;8.490;2022-11-20T00:13:31;100156.69;;;2.86;94.11
45467;BME280;31212;49.734;8.490;2022-11-20T00:15:58;100157.41;;;2.82;93.92
45467;BME280;31212;49.734;8.490;2022-11-20T00:18:25;100157.47;;;2.83;93.86
45467;BME280;31212;49.734;8.490;2022-11-20T00:20:51;100161.88;;;2.88;94.64
45467;BME280;31212;49.734;8.490;2022-11-20T00:23:18;100178.31;;;2.94;94.52
45467;BME280;31212;49.734;8.490;2022-11-20T00:25:46;100180.16;;;2.98;94.33
45467;BME280;31212;49.734;8.490;2022-11-20T00:28:12;100171.47;;;2.95;94.18
45467;BME280;31212;49.734;8.490;2022-11-20T00:30:39;100167.81;;;2.86;94.23
45467;BME280;31212;49.734;8.490;2022-11-20T00:33:05;100167.00;;;2.88;93.97
45467;BME280;31212;49.734;8.490;2022-11-20T00:35:32;100161.47;;;2.75;94.22
45467;BME280;31212;49.734;8.490;2022-11-20T00:37:58;100163.19;;;2.75;94.86
45467;BME280;31212;49.734;8.490;2022-11-20T00:40:25;100170.09;;;2.77;94.89
45467;BME280;31212;49.734;8.490;2022-11-20T00:42:53;100160.09;;;2.85;94.46
45467;BME280;31212;49.734;8.490;2022-11-20T00:45:19;100151.44;;;2.81;94.07
45467;BME280;31212;49.734;8.490;2022-11-20T00:47:46;100150.25;;;2.70;94.41
45467;BME280;31212;49.734;8.490;2022-11-20T00:50:12;100164.94;;;2.76;94.46
45467;BME280;31212;49.734;8.490;2022-11-20T00:52:39;100156.31;;;2.74;94.53
45467;BME280;31212;49.734;8.490;2022-11-20T00:55:06;100167.53;;;2.77;94.72
45467;BME280;31212;49.734;8.490;2022-11-20T00:57:33;100171.66;;;2.72;94.67
45467;BME280;31212;49.734;8.490;2022-11-20T01:00:01;100158.78;;;2.71;94.78
45467;BME280;31212;49.734;8.490;2022-11-20T01:02:27;100169.84;;;2.69;95.24
45467;BME280;31212;49.734;8.490;2022-11-20T01:04:54;100166.34;;;2.66;95.39
45467;BME280;31212;49.734;8.490;2022-11-20T01:07:20;100170.75;;;2.70;95.09
45467;BME280;31212;49.734;8.490;2022-11-20T01:09:47;100165.41;;;2.64;95.56
45467;BME280;31212;49.734;8.490;2022-11-20T01:12:13;100160.25;;;2.62;95.43
45467;BME280;31212;49.734;8.490;2022-11-20T01:14:40;100163.72;;;2.64;95.80
45467;BME280;31212;49.734;8.490;2022-11-20T01:17:08;100168.19;;;2.70;95.89
45467;BME280;31212;49.734;8.490;2022-11-20T01:19:34;100167.97;;;2.64;95.77
45467;BME280;31212;49.734;8.490;2022-11-20T01:22:01;100168.84;;;2.64;95.49
45467;BME280;31212;49.734;8.490;2022-11-20T01:24:27;100171.34;;;2.63;95.72
45467;BME280;31212;49.734;8.490;2022-11-20T01:26:54;100173.19;;;2.67;95.72
45467;BME280;31212;49.734;8.490;2022-11-20T01:29:23;100162.06;;;2.66;96.07
45467;BME280;31212;49.734;8.490;2022-11-20T01:31:50;100161.22;;;2.66;96.24
45467;BME280;31212;49.734;8.490;2022-11-20T01:34:20;100169.91;;;2.71;96.25
45467;BME280;31212;49.734;8.490;2022-11-20T01:36:48;100169.03;;;2.71;96.56
45467;BME280;31212;49.734;8.490;2022-11-20T01:39:17;100174.28;;;2.75;96.26
45467;BME280;31212;49.734;8.490;2022-11-20T01:41:44;100170.84;;;2.73;96.37
45467;BME280;31212;49.734;8.490;2022-11-20T01:44:56;100173.97;;;2.64;96.09
45467;BME280;31212;49.734;8.490;2022-11-20T01:47:30;100167.03;;;2.62;96.01
45467;BME280;31212;49.734;8.490;2022-11-20T01:50:04;100171.34;;;2.63;96.31
45467;BME280;31212;49.734;8.490;2022-11-20T01:52:34;100168.78;;;2.63;95.99
45467;BME280;31212;49.734;8.490;2022-11-20T01:55:05;100171.28;;;2.60;96.54
45467;BME280;31212;49.734;8.490;2022-11-20T01:57:33;100164.31;;;2.56;96.38
45467;BME280;31212;49.734;8.490;2022-11-20T02:00:04;100155.81;;;2.57;96.28
45467;BME280;31212;49.734;8.490;2022-11-20T02:02:39;100149.84;;;2.58;96.55
45467;BME280;31212;49.734;8.490;2022-11-20T02:05:16;100154.88;;;2.55;96.65
45467;BME280;31212;49.734;8.490;2022-11-20T02:07:46;100150.13;;;2.67;96.45
45467;BME280;31212;49.734;8.490;2022-11-20T02:10:14;100150.16;;;2.68;96.33
45467;BME280;31212;49.734;8.490;2022-11-20T02:12:40;100148.56;;;2.72;96.36
45467;BME280;31212;49.734;8.490;2022-11-20T02:15:25;100140.88;;;2.72;96.10
45467;BME280;31212;49.734;8.490;2022-11-20T02:17:51;100136.53;;;2.69;95.88
45467;BME280;31212;49.734;8.490;2022-11-20T02:20:20;100151.13;;;2.72;95.72
45467;BME280;31212;49.734;8.490;2022-11-20T02:22:52;100145.94;;;2.69;95.75
45467;BME280;31212;49.734;8.490;2022-11-20T02:25:21;100150.31;;;2.73;96.12
45467;BME280;31212;49.734;8.490;2022-11-20T02:27:47;100146.75;;;2.68;95.63
45467;BME280;31212;49.734;8.490;2022-11-20T02:30:15;100139.91;;;2.68;95.56
45467;BME280;31212;49.734;8.490;2022-11-20T02:32:41;100138.03;;;2.63;96.06
45467;BME280;31212;49.734;8.490;2022-11-20T02:35:39;100138.31;;;2.72;95.80
45467;BME280;31212;49.734;8.490;2022-11-20T02:38:06;100138.56;;;2.80;95.98
45467;BME280;31212;49.734;8.490;2022-11-20T02:40:34;100129.03;;;2.76;95.44
45467;BME280;31212;49.734;8.490;2022-11-20T02:43:01;100132.53;;;2.79;95.70
45467;BME280;31212;49.734;8.490;2022-11-20T02:45:27;100130.88;;;2.80;95.27
45467;BME280;31212;49.734;8.490;2022-11-20T02:47:54;100133.44;;;2.80;95.27
45467;BME280;31212;49.734;8.490;2022-11-20T02:50:20;100142.81;;;2.79;95.54
45467;BME280;31212;49.734;8.490;2022-11-20T02:52:47;100141.28;;;2.86;95.24
45467;BME280;31212;49.734;8.490;2022-11-20T02:55:13;100128.47;;;2.86;95.39
45467;BME280;31212;49.734;8.490;2022-11-20T02:57:41;100131.28;;;2.94;95.57
45467;BME280;31212;49.734;8.490;2022-11-20T03:00:09;100130.72;;;3.04;95.63
45467;BME280;31212;49.734;8.490;2022-11-20T03:02:35;100134.38;;;3.12;95.67
45467;BME280;31212;49.734;8.490;2022-11-20T03:05:02;100136.13;;;3.13;95.23
45467;BME280;31212;49.734;8.490;2022-11-20T03:07:29;100129.81;;;3.02;95.03
45467;BME280;31212;49.734;8.490;2022-11-20T03:09:55;100126.38;;;3.01;95.21
45467;BME280;31212;49.734;8.490;2022-11-20T03:12:22;100125.69;;;3.07;94.67
45467;BME280;31212;49.734;8.490;2022-11-20T03:14:50;100126.47;;;3.05;94.69
45467;BME280;31212;49.734;8.490;2022-11-20T03:17:16;100125.69;;;3.07;94.47
45467;BME280;31212;49.734;8.490;2022-11-20T03:19:43;100128.25;;;3.07;94.65
45467;BME280;31212;49.734;8.490;2022-11-20T03:22:09;100118.59;;;2.98;94.33
45467;BME280;31212;49.734;8.490;2022-11-20T03:24:36;100126.63;;;3.09;94.46
45467;BME280;31212;49.734;8.490;2022-11-20T03:27:02;100122.00;;;2.97;94.22
45467;BME280;31212;49.734;8.490;2022-11-20T03:29:29;100125.13;;;2.89;94.44
45467;BME280;31212;49.734;8.490;2022-11-20T03:31:57;100120.56;;;2.78;94.49
45467;BME280;31212;49.734;8.490;2022-11-20T03:34:23;100125.00;;;2.84;94.58
45467;BME280;31212;49.734;8.490;2022-11-20T03:36:50;100128.78;;;2.97;94.81
45467;BME280;31212;49.734;8.490;2022-11-20T03:39:16;100131.19;;;2.91;94.94
45467;BME280;31212;49.734;8.490;2022-11-20T03:41:43;100128.28;;;2.78;94.92
45467;BME280;31212;49.734;8.490;2022-11-20T03:44:11;100126.84;;;2.88;94.25
45467;BME280;31212;49.734;8.490;2022-11-20T03:46:38;100130.22;;;2.87;94.41
45467;BME280;31212;49.734;8.490;2022-11-20T03:49:06;100131.31;;;2.95;94.85
45467;BME280;31212;49.734;8.490;2022-11-20T03:51:34;100120.66;;;2.81;93.91
45467;BME280;31212;49.734;8.490;2022-11-20T03:54:03;100119.84;;;2.82;94.00
45467;BME280;31212;49.734;8.490;2022-11-20T03:56:32;100113.78;;;2.80;94.26
45467;BME280;31212;49.734;8.490;2022-11-20T03:58:59;100115.63;;;2.84;94.53
45467;BME280;31212;49.734;8.490;2022-11-20T04:01:27;100119.19;;;2.90;94.35
45467;BME280;31212;49.734;8.490;2022-11-20T04:03:55;100122.78;;;2.95;94.59
45467;BME280;31212;49.734;8.490;2022-11-20T04:06:25;100127.44;;;3.08;94.43
45467;BME280;31212;49.734;8.490;2022-11-20T04:08:54;100116.28;;;3.08;94.25
45467;BME280;31212;49.734;8.490;2022-11-20T04:11:22;100111.38;;;3.15;93.91
45467;BME280;31212;49.734;8.490;2022-11-20T04:13:51;100103.59;;;3.12;94.33
45467;BME280;31212;49.734;8.490;2022-11-20T04:16:19;100105.31;;;3.12;94.23
45467;BME280;31212;49.734;8.490;2022-11-20T04:18:46;100109.59;;;3.13;94.21
45467;BME280;31212;49.734;8.490;2022-11-20T04:21:12;100105.34;;;3.13;94.48
45467;BME280;31212;49.734;8.490;2022-11-20T04:23:40;100098.56;;;3.15;94.73
45467;BME280;31212;49.734;8.490;2022-11-20T04:26:08;100098.41;;;3.09;94.46
45467;BME280;31212;49.734;8.490;2022-11-20T04:28:36;100093.28;;;3.09;94.52
45467;BME280;31212;49.734;8.490;2022-11-20T04:31:04;100094.72;;;3.01;94.73
45467;BME280;31212;49.734;8.490;2022-11-20T04:33:32;100104.69;;;3.20;94.51
45467;BME280;31212;49.734;8.490;2022-11-20T04:36:02;100100.47;;;3.23;94.23
45467;BME280;31212;49.734;8.490;2022-11-20T04:38:29;100103.47;;;3.38;94.09
45467;BME280;31212;49.734;8.490;2022-11-20T04:40:58;100093.72;;;3.26;94.20
45467;BME280;31212;49.734;8.490;2022-11-20T04:43:24;100096.25;;;3.25;94.84
45467;BME280;31212;49.734;8.490;2022-11-20T04:45:51;100097.22;;;3.28;94.23
45467;BME280;31212;49.734;8.490;2022-11-20T04:48:17;100093.59;;;3.22;94.18
45467;BME280;31212;49.734;8.490;2022-11-20T04:50:44;100087.34;;;3.12;94.29
45467;BME280;31212;49.734;8.490;2022-11-20T04:53:11;100087.59;;;3.21;93.99
45467;BME280;31212;49.734;8.490;2022-11-20T04:55:37;100093.34;;;3.12;94.10
45467;BME280;31212;49.734;8.490;2022-11-20T04:58:05;100096.22;;;3.23;94.55
45467;BME280;31212;49.734;8.490;2022-11-20T05:00:32;100101.63;;;3.34;94.12
45467;BME280;31212;49.734;8.490;2022-11-20T05:02:58;100095.56;;;3.32;93.86
45467;BME280;31212;49.734;8.490;2022-11-20T05:05:25;100091.34;;;3.32;94.09
45467;BME280;31212;49.734;8.490;2022-11-20T05:07:51;100083.72;;;3.35;93.77
45467;BME280;31212;49.734;8.490;2022-11-20T05:10:18;100081.84;;;3.30;93.82
45467;BME280;31212;49.734;8.490;2022-11-20T05:12:44;100074.94;;;3.27;93.44
45467;BME280;31212;49.734;8.490;2022-11-20T05:15:12;100080.25;;;3.33;93.74
45467;BME280;31212;49.734;8.490;2022-11-20T05:17:39;100085.53;;;3.40;93.55
45467;BME280;31212;49.734;8.490;2022-11-20T05:20:07;100089.91;;;3.44;93.92
45467;BME280;31212;49.734;8.490;2022-11-20T05:22:33;100081.41;;;3.45;93.79
45467;BME280;31212;49.734;8.490;2022-11-20T05:25:00;100082.22;;;3.44;93.91
45467;BME280;31212;49.734;8.490;2022-11-20T05:27:27;100080.97;;;3.29;93.89
45467;BME280;31212;49.734;8.490;2022-11-20T05:29:53;100080.53;;;3.44;93.75
45467;BME280;31212;49.734;8.490;2022-11-20T05:32:21;100079.97;;;3.56;93.71
45467;BME280;31212;49.734;8.490;2022-11-20T05:34:50;100085.25;;;3.61;93.43
45467;BME280;31212;49.734;8.490;2022-11-20T05:37:17;100078.28;;;3.57;93.04
45467;BME280;31212;49.734;8.490;2022-11-20T05:39:43;100073.94;;;3.54;92.97
45467;BME280;31212;49.734;8.490;2022-11-20T05:42:10;100070.66;;;3.60;92.71
45467;BME280;31212;49.734;8.490;2022-11-20T05:44:54;100075.97;;;3.66;92.99
45467;BME280;31212;49.734;8.490;2022-11-20T05:47:22;100064.81;;;3.65;92.69
45467;BME280;31212;49.734;8.490;2022-11-20T05:49:48;100057.88;;;3.61;92.40
45467;BME280;31212;49.734;8.490;2022-11-20T05:52:15;100051.56;;;3.48;92.50
45467;BME280;31212;49.734;8.490;2022-11-20T05:54:41;100053.25;;;3.48;92.55
45467;BME280;31212;49.734;8.490;2022-11-20T05:57:08;100044.81;;;3.53;92.81
45467;BME280;31212;49.734;8.490;2022-11-20T05:59:34;100037.81;;;3.46;92.48
45467;BME280;31212;49.734;8.490;2022-11-20T06:02:01;100048.03;;;3.45;92.76
45467;BME280;31212;49.734;8.490;2022-11-20T06:04:29;100052.22;;;3.41;93.07
45467;BME280;31212;49.734;8.490;2022-11-20T06:06:55;100052.25;;;3.43;92.69
45467;BME280;31212;49.734;8.490;2022-11-20T06:09:24;100060.19;;;3.52;92.84
45467;BME280;31212;49.734;8.490;2022-11-20T06:11:51;100061.75;;;3.47;92.51
45467;BME280;31212;49.734;8.490;2022-11-20T06:14:18;100069.88;;;3.62;92.38
45467;BME280;31212;49.734;8.490;2022-11-20T06:16:44;100059.66;;;3.64;92.02
45467;BME280;31212;49.734;8.490;2022-11-20T06:19:11;100044.03;;;3.56;92.22
45467;BME280;31212;49.734;8.490;2022-11-20T06:21:38;100054.22;;;3.53;92.30
45467;BME280;31212;49.734;8.490;2022-11-20T06:24:05;100064.53;;;3.54;92.14
45467;BME280;31212;49.734;8.490;2022-11-20T06:26:32;100067.00;;;3.50;92.35
45467;BME280;31212;49.734;8.490;2022-11-20T06:28:58;100054.97;;;3.49;92.38
45467;BME280;31212;49.734;8.490;2022-11-20T06:31:25;100042.91;;;3.45;92.45
45467;BME280;31212;49.734;8.490;2022-11-20T06:33:52;100053.84;;;3.38;92.88
45467;BME280;31212;49.734;8.490;2022-11-20T06:36:20;100066.69;;;3.38;93.00
45467;BME280;31212;49.734;8.490;2022-11-20T06:38:49;100063.47;;;3.46;93.18
45467;BME280;31212;49.734;8.490;2022-11-20T06:41:17;100058.09;;;3.37;93.47
45467;BME280;31212;49.734;8.490;2022-11-20T06:43:45;100056.31;;;3.34;93.55
45467;BME280;31212;49.734;8.490;2022-11-20T06:46:12;100058.59;;;3.24;93.86
45467;BME280;31212;49.734;8.490;2022-11-20T06:48:39;100063.81;;;3.27;93.89
45467;BME280;31212;49.734;8.490;2022-11-20T06:51:07;100061.41;;;3.33;93.73
45467;BME280;31212;49.734;8.490;2022-11-20T06:53:34;100059.50;;;3.26;93.56
45467;BME280;31212;49.734;8.490;2022-11-20T06:56:02;100070.59;;;3.25;93.92
45467;BME280;31212;49.734;8.490;2022-11-20T06:58:30;100075.03;;;3.30;93.96
45467;BME280;31212;49.734;8.490;2022-11-20T07:00:58;100073.38;;;3.32;94.27
45467;BME280;31212;49.734;8.490;2022-11-20T07:03:24;100074.41;;;3.39;94.39
45467;BME280;31212;49.734;8.490;2022-11-20T07:05:51;100081.19;;;3.37;94.70
45467;BME280;31212;49.734;8.490;2022-11-20T07:08:17;100095.19;;;3.48;94.83
45467;BME280;31212;49.734;8.490;2022-11-20T07:10:44;100090.16;;;3.53;94.68
45467;BME280;31212;49.734;8.490;2022-11-20T07:13:11;100097.00;;;3.52;94.53
45467;BME280;31212;49.734;8.490;2022-11-20T07:15:38;100095.47;;;3.59;94.58
45467;BME280;31212;49.734;8.490;2022-11-20T07:18:05;100090.34;;;3.59;94.22
45467;BME280;31212;49.734;8.490;2022-11-20T07:20:32;100091.22;;;3.61;94.27
45467;BME280;31212;49.734;8.490;2022-11-20T07:22:59;100096.63;;;3.70;94.48
45467;BME280;31212;49.734;8.490;2022-11-20T07:25:26;100092.19;;;3.65;94.34
45467;BME280;31212;49.734;8.490;2022-11-20T07:27:56;100101.72;;;3.69;94.40
45467;BME280;31212;49.734;8.490;2022-11-20T07:30:27;100103.47;;;3.70;93.83
45467;BME280;31212;49.734;8.490;2022-11-20T07:32:55;100098.28;;;3.68;93.97
45467;BME280;31212;49.734;8.490;2022-11-20T07:35:22;100105.03;;;3.65;93.78
45467;BME280;31212;49.734;8.490;2022-11-20T07:37:49;100104.56;;;3.80;93.59
45467;BME280;31212;49.734;8.490;2022-11-20T07:40:16;100097.81;;;3.83;93.65
45467;BME280;31212;49.734;8.490;2022-11-20T07:42:47;100097.88;;;3.86;93.71
45467;BME280;31212;49.734;8.490;2022-11-20T07:45:15;100103.69;;;3.79;93.59
45467;BME280;31212;49.734;8.490;2022-11-20T07:47:43;100095.94;;;3.78;93.74
45467;BME280;31212;49.734;8.490;2022-11-20T07:50:14;100098.63;;;3.82;93.54
45467;BME280;31212;49.734;8.490;2022-11-20T07:53:00;100101.03;;;3.76;93.33
45467;BME280;31212;49.734;8.490;2022-11-20T07:55:27;100112.06;;;3.72;93.30
45467;BME280;31212;49.734;8.490;2022-11-20T07:57:55;100120.72;;;3.76;93.51
45467;BME280;31212;49.734;8.490;2022-11-20T08:00:22;100116.13;;;3.64;92.87
45467;BME280;31212;49.734;8.490;2022-11-20T08:02:50;100118.63;;;3.61;93.07
45467;BME280;31212;49.734;8.490;2022-11-20T08:05:17;100115.72;;;3.48;93.24
45467;BME280;31212;49.734;8.490;2022-11-20T08:07:44;100108.06;;;3.50;93.01
45467;BME280;31212;49.734;8.490;2022-11-20T08:10:12;100108.81;;;3.46;92.87
45467;BME280;31212;49.734;8.490;2022-11-20T08:12:44;100116.63;;;3.50;92.97
45467;BME280;31212;49.734;8.490;2022-11-20T08:15:28;100121.78;;;3.52;92.93
45467;BME280;31212;49.734;8.490;2022-11-20T08:18:02;100123.72;;;3.59;93.24
45467;BME280;31212;49.734;8.490;2022-11-20T08:20:29;100132.59;;;3.72;93.06
45467;BME280;31212;49.734;8.490;2022-11-20T08:22:59;100135.47;;;3.84;92.98
45467;BME280;31212;49.734;8.490;2022-11-20T08:25:27;100135.66;;;3.91;93.06
45467;BME280;31212;49.734;8.490;2022-11-20T08:27:54;100127.47;;;3.72;92.96
45467;BME280;31212;49.734;8.490;2022-11-20T08:30:20;100138.41;;;3.65;93.51
45467;BME280;31212;49.734;8.490;2022-11-20T08:32:47;100146.81;;;3.93;93.28
45467;BME280;31212;49.734;8.490;2022-11-20T08:35:15;100139.81;;;3.87;93.34
45467;BME280;31212;49.734;8.490;2022-11-20T08:37:42;100130.84;;;3.71;93.04
45467;BME280;31212;49.734;8.490;2022-11-20T08:40:10;100142.38;;;3.87;92.98
45467;BME280;31212;49.734;8.490;2022-11-20T08:42:37;100142.63;;;3.96;92.73
45467;BME280;31212;49.734;8.490;2022-11-20T08:45:04;100136.78;;;4.02;92.47
45467;BME280;31212;49.734;8.490;2022-11-20T08:47:31;100136.31;;;3.83;92.46
45467;BME280;31212;49.734;8.490;2022-11-20T08:49:58;100144.91;;;3.85;92.85
45467;BME280;31212;49.734;8.490;2022-11-20T08:52:26;100151.38;;;4.03;92.59
45467;BME280;31212;49.734;8.490;2022-11-20T08:54:52;100137.97;;;4.15;91.98
45467;BME280;31212;49.734;8.490;2022-11-20T08:57:19;100132.84;;;4.16;91.85
45467;BME280;31212;49.734;8.490;2022-11-20T08:59:46;100139.09;;;3.93;92.05
45467;BME280;31212;49.734;8.490;2022-11-20T09:02:12;100138.31;;;3.95;92.27
45467;BME280;31212;49.734;8.490;2022-11-20T09:04:39;100130.03;;;3.72;92.30
45467;BME280;31212;49.734;8.490;2022-11-20T09:07:05;100146.31;;;3.73;93.05
45467;BME280;31212;49.734;8.490;2022-11-20T09:09:33;100151.03;;;3.89;92.88
45467;BME280;31212;49.734;8.490;2022-11-20T09:12:00;100147.97;;;4.04;92.54
45467;BME280;31212;49.734;8.490;2022-11-20T09:14:26;100137.69;;;4.04;92.08
45467;BME280;31212;49.734;8.490;2022-11-20T09:16:55;100123.19;;;4.06;91.94
45467;BME280;31212;49.734;8.490;2022-11-20T09:19:23;100132.13;;;4.22;92.17
45467;BME280;31212;49.734;8.490;2022-11-20T09:21:49;100141.03;;;4.35;92.43
45467;BME280;31212;49.734;8.490;2022-11-20T09:24:16;100149.50;;;4.31;92.90
45467;BME280;31212;49.734;8.490;2022-11-20T09:26:44;100158.63;;;4.56;93.08
45467;BME280;31212;49.734;8.490;2022-11-20T09:29:11;100157.72;;;4.52;92.50
45467;BME280;31212;49.734;8.490;2022-11-20T09:31:38;100144.06;;;4.55;91.73
45467;BME280;31212;49.734;8.490;2022-11-20T09:34:04;100123.06;;;4.36;91.33
45467;BME280;31212;49.734;8.490;2022-11-20T09:36:31;100121.03;;;4.23;91.10
45467;BME280;31212;49.734;8.490;2022-11-20T09:38:58;100114.94;;;4.19;90.77
45467;BME280;31212;49.734;8.490;2022-11-20T09:41:48;100121.84;;;4.22;90.92
45467;BME280;31212;49.734;8.490;2022-11-20T09:44:32;100109.19;;;4.30;90.36
45467;BME280;31212;49.734;8.490;2022-11-20T09:47:05;100117.69;;;4.27;90.15
45467;BME280;31212;49.734;8.490;2022-11-20T09:49:46;100104.88;;;4.29;89.96
45467;BME280;31212;49.734;8.490;2022-11-20T09:52:22;100112.53;;;4.26;89.84
45467;BME280;31212;49.734;8.490;2022-11-20T09:54:53;100099.78;;;4.30;89.69
45467;BME280;31212;49.734;8.490;2022-11-20T09:57:25;100098.19;;;4.35;89.58
45467;BME280;31212;49.734;8.490;2022-11-20T10:00:00;100103.56;;;4.45;89.75
45467;BME280;31212;49.734;8.490;2022-11-20T10:02:40;100121.84;;;4.59;90.66
45467;BME280;31212;49.734;8.490;2022-11-20T10:05:12;100119.63;;;4.74;90.16
45467;BME280;31212;49.734;8.490;2022-11-20T10:07:43;100123.25;;;4.82;90.71
45467;BME280;31212;49.734;8.490;2022-11-20T10:10:15;100124.91;;;4.80;90.65
45467;BME280;31212;49.734;8.490;2022-11-20T10:12:55;100131.97;;;4.89;90.99
45467;BME280;31212;49.734;8.490;2022-11-20T10:15:34;100135.00;;;5.11;90.92
45467;BME280;31212;49.734;8.490;2022-11-20T10:18:23;100111.84;;;5.12;89.45
45467;BME280;31212;49.734;8.490;2022-11-20T10:21:00;100106.84;;;5.18;89.58
45467;BME280;31212;49.734;8.490;2022-11-20T10:23:44;100112.84;;;5.19;89.89
45467;BME280;31212;49.734;8.490;2022-11-20T10:26:19;100084.34;;;5.08;88.49
45467;BME280;31212;49.734;8.490;2022-11-20T10:28:56;100070.31;;;4.94;87.78
45467;BME280;31212;49.734;8.490;2022-11-20T10:31:30;100057.44;;;4.94;87.89
45467;BME280;31212;49.734;8.490;2022-11-20T10:34:02;100048.75;;;4.88;87.79
45467;BME280;31212;49.734;8.490;2022-11-20T10:36:34;100045.25;;;4.83;88.00
45467;BME280;31212;49.734;8.490;2022-11-20T10:39:06;100048.47;;;4.73;87.93
45467;BME280;31212;49.734;8.490;2022-11-20T10:41:40;100052.75;;;4.72;88.05
45467;BME280;31212;49.734;8.490;2022-11-20T10:44:14;100064.59;;;4.64;87.96
45467;BME280;31212;49.734;8.490;2022-11-20T10:47:02;100063.69;;;4.64;88.34
45467;BME280;31212;49.734;8.490;2022-11-20T10:49:30;100052.22;;;4.49;88.32
45467;BME280;31212;49.734;8.490;2022-11-20T10:52:05;100063.16;;;4.39;88.40
45467;BME280;31212;49.734;8.490;2022-11-20T10:54:40;100076.19;;;4.47;88.96
45467;BME280;31212;49.734;8.490;2022-11-20T10:57:16;100084.00;;;4.51;89.26
45467;BME280;31212;49.734;8.490;2022-11-20T11:00:01;100080.75;;;4.60;89.02
45467;BME280;31212;49.734;8.490;2022-11-20T11:02:34;100076.59;;;4.67;89.35
45467;BME280;31212;49.734;8.490;2022-11-20T11:05:10;100071.28;;;4.58;88.87
45467;BME280;31212;49.734;8.490;2022-11-20T11:07:41;100059.13;;;4.50;88.93
45467;BME280;31212;49.734;8.490;2022-11-20T11:10:15;100066.75;;;4.46;89.11
45467;BME280;31212;49.734;8.490;2022-11-20T11:12:44;100079.84;;;4.58;89.34
45467;BME280;31212;49.734;8.490;2022-11-20T11:15:24;100070.63;;;4.68;89.32
45467;BME280;31212;49.734;8.490;2022-11-20T11:17:50;100081.34;;;4.88;89.83
45467;BME280;31212;49.734;8.490;2022-11-20T11:20:19;100086.88;;;5.07;89.48
45467;BME280;31212;49.734;8.490;2022-11-20T11:22:48;100085.41;;;5.19;89.90
45467;BME280;31212;49.734;8.490;2022-11-20T11:25:21;100073.56;;;5.28;89.43
45467;BME280;31212;49.734;8.490;2022-11-20T11:27:49;100064.38;;;5.42;89.41
45467;BME280;31212;49.734;8.490;2022-11-20T11:30:19;100054.25;;;5.51;88.75
45467;BME280;31212;49.734;8.490;2022-11-20T11:32:46;100056.28;;;5.69;89.19
45467;BME280;31212;49.734;8.490;2022-11-20T11:35:22;100043.53;;;5.77;88.75
45467;BME280;31212;49.734;8.490;2022-11-20T11:37:49;100042.63;;;5.73;88.71
45467;BME280;31212;49.734;8.490;2022-11-20T11:40:21;100031.25;;;5.61;88.72
45467;BME280;31212;49.734;8.490;2022-11-20T11:42:52;100032.63;;;5.42;88.85
45467;BME280;31212;49.734;8.490;2022-11-20T11:45:21;100026.41;;;5.30;88.91
45467;BME280;31212;49.734;8.490;2022-11-20T11:47:48;100042.75;;;5.32;89.45
45467;BME280;31212;49.734;8.490;2022-11-20T11:50:20;100035.91;;;5.33;89.03
45467;BME280;31212;49.734;8.490;2022-11-20T11:52:49;100053.13;;;5.37;89.39
45467;BME280;31212;49.734;8.490;2022-11-20T11:55:21;100057.66;;;5.49;90.23
45467;BME280;31212;49.734;8.490;2022-11-20T11:57:54;100053.56;;;5.60;89.89
45467;BME280;31212;49.734;8.490;2022-11-20T12:00:25;100041.50;;;5.58;89.71
45467;BME280;31212;49.734;8.490;2022-11-20T12:03:00;100031.06;;;5.50;89.25
45467;BME280;31212;49.734;8.490;2022-11-20T12:05:35;100029.34;;;5.50;89.80
45467;BME280;31212;49.734;8.490;2022-11-20T12:08:06;100029.31;;;5.47;89.74
45467;BME280;31212;49.734;8.490;2022-11-20T12:10:44;100038.97;;;5.59;90.76
45467;BME280;31212;49.734;8.490;2022-11-20T12:13:20;100038.53;;;5.86;90.32
45467;BME280;31212;49.734;8.490;2022-11-20T12:15:49;100035.47;;;6.06;89.89
45467;BME280;31212;49.734;8.490;2022-11-20T12:18:18;100020.91;;;6.10;89.65
45467;BME280;31212;49.734;8.490;2022-11-20T12:20:54;100006.19;;;6.01;88.53
45467;BME280;31212;49.734;8.490;2022-11-20T12:23:28;100013.72;;;5.92;88.78
45467;BME280;31212;49.734;8.490;2022-11-20T12:26:05;100016.19;;;5.85;89.87
45467;BME280;31212;49.734;8.490;2022-11-20T12:28:46;100019.44;;;5.73;89.87
45467;BME280;31212;49.734;8.490;2022-11-20T12:34:24;100037.28;;;5.63;90.23
45467;BME280;31212;49.734;8.490;2022-11-20T12:36:56;100042.53;;;5.67;90.92
45467;BME280;31212;49.734;8.490;2022-11-20T12:39:34;100042.78;;;5.83;90.79
45467;BME280;31212;49.734;8.490;2022-11-20T12:45:41;100025.91;;;6.00;91.07
45467;BME280;31212;49.734;8.490;2022-11-20T12:48:44;100029.44;;;6.05;91.16
45467;BME280;31212;49.734;8.490;2022-11-20T12:51:50;100020.78;;;6.02;90.62
45467;BME280;31212;49.734;8.490;2022-11-20T12:54:46;100024.25;;;6.04;90.65
45467;BME280;31212;49.734;8.490;2022-11-20T12:57:19;100028.50;;;6.02;91.44
45467;BME280;31212;49.734;8.490;2022-11-20T13:00:00;100020.88;;;6.08;91.50
45467;BME280;31212;49.734;8.490;2022-11-20T13:02:33;100021.00;;;6.16;91.17
45467;BME280;31212;49.734;8.490;2022-11-20T13:05:19;100024.38;;;6.12;90.95
45467;BME280;31212;49.734;8.490;2022-11-20T13:07:51;100018.44;;;6.17;91.40
45467;BME280;31212;49.734;8.490;2022-11-20T13:10:23;100024.53;;;6.22;91.41
45467;BME280;31212;49.734;8.490;2022-11-20T13:12:56;100025.38;;;6.23;91.79
45467;BME280;31212;49.734;8.490;2022-11-20T13:15:36;100014.22;;;6.21;91.85
45467;BME280;31212;49.734;8.490;2022-11-20T13:18:09;100010.72;;;6.19;92.38
45467;BME280;31212;49.734;8.490;2022-11-20T13:20:41;100008.13;;;6.16;92.00